Time;durP1;ratioP1;P1;durP2;ratioP2;P2;SDS_P1;SDS_P2;PMS_P1;PMS_P2;Temp;Humidity;BMP_temperature;BMP_pressure;BME280_temperature;BME280_humidity;BME280_pressure;Samples;Min_cycle;Max_cycle;Signal;HPM_P1;HPM_P2
2022/01/11 00:01:55;;;;;;;3.17;1.80;;;21.50;45.30;;;;;;4932737;29;20050;-75
2022/01/11 00:04:28;;;;;;;3.90;1.92;;;21.50;45.30;;;;;;4932070;29;20134;-75
2022/01/11 00:06:54;;;;;;;3.88;1.95;;;21.50;45.30;;;;;;4932212;29;20059;-75
2022/01/11 00:09:40;;;;;;;4.03;2.00;;;21.50;45.30;;;;;;4931645;29;20060;-75
2022/01/11 00:12:08;;;;;;;2.92;1.63;;;21.50;45.30;;;;;;4948509;28;20079;-76
2022/01/11 00:14:34;;;;;;;2.80;1.52;;;21.50;45.30;;;;;;4932649;29;20519;-75
2022/01/11 00:17:00;;;;;;;2.95;1.70;;;21.60;45.30;;;;;;4931871;29;20052;-75
2022/01/11 00:19:28;;;;;;;3.17;1.60;;;21.50;45.30;;;;;;4932591;29;20069;-75
2022/01/11 00:21:53;;;;;;;2.72;1.27;;;21.50;45.30;;;;;;4932384;29;20070;-75
2022/01/11 00:24:33;;;;;;;3.22;1.63;;;21.50;45.30;;;;;;4931655;29;20047;-75
2022/01/11 00:27:07;;;;;;;3.65;1.75;;;21.50;45.30;;;;;;4932041;29;20055;-75
2022/01/11 00:29:34;;;;;;;2.72;1.60;;;21.50;45.20;;;;;;4932402;29;20043;-75
2022/01/11 00:32:05;;;;;;;2.17;1.33;;;21.50;45.20;;;;;;4931896;29;20047;-75
2022/01/11 00:34:40;;;;;;;3.15;1.75;;;21.50;45.30;;;;;;4932083;29;20040;-75
2022/01/11 00:37:07;;;;;;;4.55;2.33;;;21.50;45.30;;;;;;4932444;29;20051;-75
2022/01/11 00:39:32;;;;;;;4.28;1.98;;;21.50;45.30;;;;;;4931440;29;20090;-75
2022/01/11 00:41:58;;;;;;;2.95;1.60;;;21.50;45.30;;;;;;4932076;29;20447;-75
2022/01/11 00:44:23;;;;;;;3.50;1.77;;;22.20;45.70;;;;;;4931454;29;20079;-74
2022/01/11 00:46:49;;;;;;;3.00;1.52;;;21.50;45.30;;;;;;4931737;29;20043;-75
2022/01/11 00:49:14;;;;;;;3.03;1.50;;;21.50;45.30;;;;;;4932012;29;20080;-75
2022/01/11 00:51:40;;;;;;;3.58;1.60;;;21.50;45.30;;;;;;4931431;29;20150;-74
2022/01/11 00:54:06;;;;;;;3.40;1.70;;;21.50;45.30;;;;;;4931621;29;20043;-74
2022/01/11 00:56:31;;;;;;;3.30;1.75;;;21.50;45.30;;;;;;4931929;29;20455;-74
2022/01/11 00:58:57;;;;;;;3.72;1.73;;;21.50;45.30;;;;;;4910807;29;20048;-74
2022/01/11 01:01:22;;;;;;;2.35;1.23;;;21.50;45.30;;;;;;4909504;29;20045;-74
2022/01/11 01:03:48;;;;;;;3.00;1.70;;;21.50;45.30;;;;;;4894030;29;20424;-75
2022/01/11 01:06:13;;;;;;;2.75;1.40;;;21.50;45.30;;;;;;4909127;29;20157;-75
2022/01/11 01:08:39;;;;;;;2.50;1.35;;;21.90;45.60;;;;;;4893941;29;20117;-75
2022/01/11 01:11:05;;;;;;;2.65;1.50;;;21.50;45.40;;;;;;4894146;29;20147;-75
2022/01/11 01:13:30;;;;;;;2.92;1.55;;;21.50;45.40;;;;;;4893307;29;20454;-75
2022/01/11 01:15:56;;;;;;;2.50;1.50;;;21.50;45.40;;;;;;4909235;29;20056;-75
2022/01/11 01:18:24;;;;;;;2.22;1.17;;;21.50;45.40;;;;;;4909017;29;20051;-75
2022/01/11 01:20:50;;;;;;;2.65;1.23;;;21.50;45.50;;;;;;4908254;29;20061;-75
2022/01/11 01:23:16;;;;;;;3.63;1.45;;;21.50;45.50;;;;;;4893493;29;20049;-75
2022/01/11 01:25:42;;;;;;;2.70;1.38;;;21.50;45.50;;;;;;4909581;29;20060;-75
2022/01/11 01:28:07;;;;;;;3.03;1.60;;;21.50;45.50;;;;;;4908633;29;20470;-74
2022/01/11 01:30:33;;;;;;;2.65;1.42;;;21.50;45.50;;;;;;4894999;29;20096;-75
2022/01/11 01:33:04;;;;;;;2.60;1.27;;;21.50;45.60;;;;;;3695749;28;10021682;-76
2022/01/11 01:35:42;;;;;;;2.50;1.30;;;21.50;45.50;;;;;;19;353;10020736;-75
2022/01/11 01:38:08;;;;;;;3.45;1.60;;;21.50;45.60;;;;;;1531445;29;10001063;-75
2022/01/11 01:40:39;;;;;;;3.35;1.50;;;21.50;45.50;;;;;;4931242;29;20483;-75
2022/01/11 01:43:05;;;;;;;2.38;1.20;;;21.50;45.50;;;;;;4930964;29;20126;-75
2022/01/11 01:45:31;;;;;;;2.40;1.33;;;21.50;45.50;;;;;;4930876;29;20051;-75
2022/01/11 01:47:58;;;;;;;2.58;1.45;;;21.50;45.50;;;;;;4930562;29;20742;-75
2022/01/11 01:50:25;;;;;;;2.47;1.30;;;21.50;45.50;;;;;;4931160;29;20058;-74
2022/01/11 01:52:57;;;;;;;3.03;1.30;;;21.50;45.50;;;;;;4931054;29;20075;-75
2022/01/11 01:55:23;;;;;;;2.10;1.02;;;21.50;45.50;;;;;;4931394;29;20047;-75
2022/01/11 01:57:50;;;;;;;2.30;1.20;;;21.50;45.50;;;;;;4932331;29;20198;-75
2022/01/11 02:00:16;;;;;;;2.28;1.25;;;22.00;45.70;;;;;;4932197;29;20052;-75
2022/01/11 02:02:42;;;;;;;2.17;1.15;;;21.50;45.50;;;;;;4930061;29;20087;-75
2022/01/11 02:05:08;;;;;;;2.35;1.20;;;21.50;45.50;;;;;;4932291;29;20048;-75
2022/01/11 02:07:34;;;;;;;2.65;1.50;;;21.50;45.50;;;;;;4930718;29;20116;-75
2022/01/11 02:10:01;;;;;;;2.63;1.40;;;21.50;45.50;;;;;;4930031;29;20051;-75
2022/01/11 02:12:27;;;;;;;3.13;1.42;;;21.50;45.40;;;;;;4930594;29;20056;-75
2022/01/11 02:14:53;;;;;;;2.80;1.50;;;21.50;45.40;;;;;;4930709;29;20105;-75
2022/01/11 02:17:19;;;;;;;2.50;1.13;;;21.50;45.40;;;;;;4930276;29;20052;-75
2022/01/11 02:19:44;;;;;;;2.25;1.27;;;21.50;45.40;;;;;;4929428;28;20423;-75
2022/01/11 02:22:10;;;;;;;2.03;1.02;;;21.50;45.40;;;;;;4930616;29;20411;-75
2022/01/11 02:24:35;;;;;;;1.83;1.10;;;21.50;45.30;;;;;;4930105;29;20051;-75
2022/01/11 02:27:01;;;;;;;2.75;1.30;;;21.50;45.30;;;;;;4930793;29;20051;-74
2022/01/11 02:29:29;;;;;;;2.40;1.10;;;20.70;44.90;;;;;;4930608;29;20066;-75
2022/01/11 02:31:55;;;;;;;2.08;1.23;;;21.50;45.30;;;;;;4949504;28;20467;-75
2022/01/11 02:34:21;;;;;;;1.95;1.20;;;21.50;45.30;;;;;;4934873;29;20487;-75
2022/01/11 02:36:46;;;;;;;2.15;1.10;;;21.50;45.30;;;;;;4934385;29;20051;-74
2022/01/11 02:39:12;;;;;;;2.92;1.30;;;21.50;45.30;;;;;;4933931;29;20573;-75
2022/01/11 02:41:48;;;;;;;2.08;1.10;;;21.50;45.30;;;;;;4934174;29;20514;-75
2022/01/11 02:44:14;;;;;;;2.47;1.40;;;21.50;45.30;;;;;;4913280;29;20066;-74
2022/01/11 02:46:39;;;;;;;2.67;1.40;;;21.50;45.30;;;;;;4915169;29;20052;-75
2022/01/11 02:49:05;;;;;;;3.42;1.38;;;21.50;45.30;;;;;;4915307;29;20146;-75
2022/01/11 02:51:30;;;;;;;1.80;0.95;;;21.50;45.30;;;;;;4914534;29;20055;-75
2022/01/11 02:53:57;;;;;;;1.73;0.90;;;21.50;45.30;;;;;;4722558;29;5090578;-75
2022/01/11 02:56:23;;;;;;;1.98;1.20;;;21.50;45.40;;;;;;4915108;29;20048;-75
2022/01/11 02:58:49;;;;;;;2.42;1.30;;;21.50;45.40;;;;;;4913985;29;20481;-75
2022/01/11 03:01:14;;;;;;;2.42;1.10;;;21.50;45.30;;;;;;4914907;29;20056;-75
2022/01/11 03:03:40;;;;;;;1.73;0.98;;;21.50;45.30;;;;;;4914822;29;20055;-75
2022/01/11 03:06:06;;;;;;;2.15;1.08;;;21.50;45.30;;;;;;4913869;29;20044;-75
2022/01/11 03:08:34;;;;;;;1.95;1.00;;;21.50;45.30;;;;;;4913657;29;20052;-75
2022/01/11 03:11:00;;;;;;;2.30;1.30;;;21.50;45.40;;;;;;4914599;29;20511;-75
2022/01/11 03:13:26;;;;;;;2.13;1.25;;;21.50;45.30;;;;;;4914225;29;20060;-75
2022/01/11 03:15:53;;;;;;;2.28;1.40;;;21.50;45.40;;;;;;4914790;29;20048;-75
2022/01/11 03:18:18;;;;;;;2.47;1.30;;;21.50;45.40;;;;;;4914777;29;20052;-75
2022/01/11 03:20:45;;;;;;;2.78;1.30;;;21.50;45.40;;;;;;4913896;29;20051;-75
2022/01/11 03:23:12;;;;;;;1.92;1.10;;;21.50;45.40;;;;;;4914257;29;20060;-76
2022/01/11 03:25:37;;;;;;;1.65;0.90;;;21.50;45.40;;;;;;4914877;29;20055;-75
2022/01/11 03:28:03;;;;;;;2.10;1.20;;;21.50;45.40;;;;;;4913869;29;20059;-75
2022/01/11 03:30:28;;;;;;;1.73;0.98;;;21.50;45.40;;;;;;4914344;29;20055;-75
2022/01/11 03:32:54;;;;;;;2.33;1.25;;;21.50;45.40;;;;;;4914222;29;20044;-76
2022/01/11 03:35:20;;;;;;;2.08;1.02;;;21.50;45.40;;;;;;4913371;29;20051;-75
2022/01/11 03:37:45;;;;;;;1.70;1.08;;;21.50;45.40;;;;;;4914302;29;20059;-75
2022/01/11 03:40:14;;;;;;;1.63;1.00;;;21.50;45.40;;;;;;4913451;29;20485;-75
2022/01/11 03:42:39;;;;;;;2.22;1.20;;;21.50;45.40;;;;;;4912878;29;20048;-75
2022/01/11 03:45:06;;;;;;;2.15;1.00;;;21.50;45.40;;;;;;4914295;29;20055;-75
2022/01/11 03:47:32;;;;;;;2.10;1.10;;;21.50;45.40;;;;;;4913509;29;20052;-75
2022/01/11 03:49:58;;;;;;;2.25;1.20;;;21.50;45.40;;;;;;4913984;29;20047;-75
2022/01/11 03:52:24;;;;;;;1.90;1.08;;;21.50;45.70;;;;;;4914031;29;20052;-75
2022/01/11 03:57:22;;;;;;;4.25;1.17;;;21.50;45.40;;;;;;4913983;29;20059;-75
2022/01/11 03:59:47;;;;;;;2.25;1.30;;;21.50;45.30;;;;;;4913710;29;20058;-75
2022/01/11 04:02:13;;;;;;;1.80;1.10;;;21.50;45.30;;;;;;4913377;29;20138;-75
2022/01/11 04:04:39;;;;;;;2.13;1.10;;;21.50;45.40;;;;;;4913911;29;20544;-75
2022/01/11 04:07:04;;;;;;;2.30;1.25;;;21.50;45.30;;;;;;4913799;29;20056;-75
2022/01/11 04:09:30;;;;;;;2.50;1.10;;;21.50;45.30;;;;;;4913059;29;20051;-75
2022/01/11 04:11:56;;;;;;;2.75;1.30;;;21.50;45.30;;;;;;4914922;29;20055;-75
2022/01/11 04:14:22;;;;;;;2.63;1.30;;;21.50;45.30;;;;;;4915084;29;20485;-75
2022/01/11 04:16:48;;;;;;;2.88;1.10;;;21.50;45.20;;;;;;4913127;29;20052;-75
2022/01/11 04:19:13;;;;;;;2.35;1.13;;;21.50;45.30;;;;;;4915207;29;20089;-75
2022/01/11 04:21:39;;;;;;;2.72;1.30;;;21.50;45.20;;;;;;4913354;29;20079;-75
2022/01/11 04:24:05;;;;;;;1.83;1.08;;;21.50;45.20;;;;;;4913080;29;20116;-75
2022/01/11 04:26:30;;;;;;;2.10;1.02;;;21.50;45.30;;;;;;4914565;29;20063;-75
2022/01/11 04:28:56;;;;;;;2.65;1.20;;;21.50;45.20;;;;;;4913453;29;20106;-75
2022/01/11 04:31:21;;;;;;;2.58;1.20;;;21.50;45.30;;;;;;4914053;29;20052;-75
2022/01/11 04:33:47;;;;;;;2.55;1.35;;;21.50;45.30;;;;;;4913663;29;20051;-75
2022/01/11 04:36:12;;;;;;;2.58;1.30;;;21.60;45.30;;;;;;4913590;29;20052;-75
2022/01/11 04:38:38;;;;;;;2.45;1.10;;;21.50;45.30;;;;;;4913725;29;20163;-75
2022/01/11 04:41:04;;;;;;;2.05;1.10;;;21.50;45.30;;;;;;4913339;29;20150;-75
2022/01/11 04:43:32;;;;;;;2.20;1.10;;;21.50;45.20;;;;;;4912337;29;20052;-75
2022/01/11 04:45:58;;;;;;;2.42;1.30;;;21.80;45.40;;;;;;4913214;29;20055;-75
2022/01/11 04:48:23;;;;;;;2.22;1.10;;;21.50;45.30;;;;;;4912864;29;20044;-75
2022/01/11 04:50:49;;;;;;;2.30;1.20;;;21.40;45.20;;;;;;4912572;29;20050;-75
2022/01/11 04:53:15;;;;;;;3.03;1.20;;;22.80;46.00;;;;;;4912657;29;20245;-75
2022/01/11 04:55:40;;;;;;;2.35;1.30;;;21.50;45.30;;;;;;4914203;29;20059;-75
2022/01/11 04:58:06;;;;;;;2.70;1.20;;;21.50;45.30;;;;;;4912074;29;20048;-75
2022/01/11 05:00:31;;;;;;;2.67;1.27;;;21.60;45.40;;;;;;4914135;29;20052;-75
2022/01/11 05:02:58;;;;;;;2.45;1.30;;;21.50;45.30;;;;;;4912873;29;20044;-75
2022/01/11 05:05:26;;;;;;;2.88;1.23;;;21.50;45.30;;;;;;4913390;29;20165;-74
2022/01/11 05:07:51;;;;;;;2.17;1.17;;;21.50;45.30;;;;;;4896917;29;20104;-75
2022/01/11 05:10:17;;;;;;;2.72;1.38;;;21.50;45.30;;;;;;4913694;29;20143;-75
2022/01/11 05:12:42;;;;;;;2.47;1.15;;;21.50;45.30;;;;;;4901273;28;20051;-75
2022/01/11 05:15:11;;;;;;;2.55;1.30;;;21.50;45.30;;;;;;4931798;29;20051;-75
2022/01/11 05:17:37;;;;;;;2.90;1.45;;;21.50;45.30;;;;;;4931290;29;20087;-75
2022/01/11 05:20:04;;;;;;;2.60;1.40;;;21.50;45.30;;;;;;4935941;28;20094;-75
2022/01/11 05:22:29;;;;;;;2.40;1.35;;;21.50;45.40;;;;;;4930544;29;20114;-75
2022/01/11 05:24:55;;;;;;;2.33;1.20;;;21.50;45.30;;;;;;4926891;29;20051;-75
2022/01/11 05:27:20;;;;;;;3.13;1.67;;;21.50;45.30;;;;;;4930527;29;20063;-75
2022/01/11 05:29:46;;;;;;;3.22;1.60;;;21.50;45.30;;;;;;4931497;29;20044;-75
2022/01/11 05:32:11;;;;;;;2.47;1.40;;;21.50;45.40;;;;;;4937826;28;20134;-75
2022/01/11 05:34:37;;;;;;;3.20;1.35;;;21.50;45.40;;;;;;4940689;29;20054;-75
2022/01/11 05:37:03;;;;;;;2.85;1.50;;;22.50;45.90;;;;;;4931090;29;20138;-75
2022/01/11 05:39:29;;;;;;;2.63;1.38;;;21.50;45.40;;;;;;4930902;29;20440;-75
2022/01/11 05:41:54;;;;;;;2.88;1.67;;;21.50;45.40;;;;;;4930280;29;20107;-75
2022/01/11 05:44:20;;;;;;;3.30;1.63;;;21.60;45.40;;;;;;4930980;29;20091;-75
2022/01/11 05:46:46;;;;;;;2.60;1.30;;;21.60;45.40;;;;;;4930783;29;20058;-75
2022/01/11 05:49:11;;;;;;;3.58;1.67;;;21.60;45.40;;;;;;4931207;29;20147;-75
2022/01/11 05:51:37;;;;;;;3.13;1.50;;;21.60;45.40;;;;;;4930944;29;20507;-75
2022/01/11 05:54:03;;;;;;;3.45;1.80;;;21.90;45.50;;;;;;4929989;29;20052;-75
2022/01/11 05:56:28;;;;;;;2.65;1.50;;;21.60;45.30;;;;;;4931303;29;20044;-75
2022/01/11 05:58:54;;;;;;;2.83;1.50;;;21.60;45.30;;;;;;4931107;29;20685;-75
2022/01/11 06:01:19;;;;;;;3.40;1.65;;;21.60;45.30;;;;;;4930284;29;20056;-75
2022/01/11 06:03:45;;;;;;;3.47;1.60;;;22.40;45.70;;;;;;4930804;29;20484;-75
2022/01/11 06:06:10;;;;;;;3.72;1.80;;;21.60;45.30;;;;;;4930180;29;20098;-75
2022/01/11 06:08:36;;;;;;;3.47;1.80;;;21.60;45.30;;;;;;4931028;28;20058;-75
2022/01/11 06:11:02;;;;;;;2.85;1.50;;;21.60;45.30;;;;;;4930589;29;20048;-75
2022/01/11 06:13:27;;;;;;;2.97;1.60;;;21.60;45.30;;;;;;4930837;29;20393;-75
2022/01/11 06:15:53;;;;;;;4.25;2.13;;;21.60;45.30;;;;;;4930162;29;20090;-75
2022/01/11 06:18:18;;;;;;;3.30;1.77;;;21.70;45.30;;;;;;4929776;28;20067;-75
2022/01/11 06:20:44;;;;;;;3.45;1.70;;;21.70;45.30;;;;;;4930577;29;20456;-75
2022/01/11 06:23:10;;;;;;;3.10;1.73;;;21.70;45.30;;;;;;4929610;28;20058;-75
2022/01/11 06:25:35;;;;;;;3.10;1.73;;;21.70;45.30;;;;;;4881474;29;20069;-75
2022/01/11 06:28:01;;;;;;;4.10;1.67;;;21.70;45.30;;;;;;4889870;29;20140;-75
2022/01/11 06:30:27;;;;;;;3.70;1.92;;;21.70;45.30;;;;;;4880168;29;20053;-75
2022/01/11 06:32:54;;;;;;;4.60;2.38;;;21.70;45.30;;;;;;4892112;29;20053;-75
2022/01/11 06:35:19;;;;;;;3.70;1.65;;;21.70;45.30;;;;;;4907568;29;20044;-75
2022/01/11 06:37:45;;;;;;;3.08;1.58;;;21.70;45.30;;;;;;4906661;29;20052;-75
2022/01/11 06:40:13;;;;;;;3.30;1.63;;;21.70;45.20;;;;;;4907694;29;20596;-75
2022/01/11 06:42:38;;;;;;;3.70;1.67;;;21.70;45.30;;;;;;4908392;29;20048;-75
2022/01/11 06:45:05;;;;;;;3.85;2.10;;;21.70;45.30;;;;;;4907438;29;20067;-76
2022/01/11 06:47:30;;;;;;;3.85;1.70;;;21.80;45.30;;;;;;4892325;29;20489;-75
2022/01/11 06:49:56;;;;;;;4.03;1.92;;;21.80;45.30;;;;;;4906616;29;20135;-75
2022/01/11 06:52:21;;;;;;;3.47;2.05;;;21.80;45.30;;;;;;4571013;29;10001108;-76
2022/01/11 06:54:47;;;;;;;3.40;1.77;;;21.80;45.30;;;;;;4908282;29;20512;-76
2022/01/11 06:57:13;;;;;;;3.70;2.08;;;21.80;45.30;;;;;;4907497;29;20140;-75
2022/01/11 06:59:38;;;;;;;3.83;2.15;;;21.80;45.30;;;;;;4908263;29;20857;-75
2022/01/11 07:02:04;;;;;;;5.13;2.10;;;21.90;45.40;;;;;;4892045;29;20087;-76
2022/01/11 07:04:30;;;;;;;3.15;1.58;;;21.90;45.40;;;;;;4891579;29;20103;-76
2022/01/11 07:06:55;;;;;;;4.38;2.30;;;21.90;45.40;;;;;;4908062;29;20056;-75
2022/01/11 07:09:21;;;;;;;3.72;1.80;;;21.90;45.40;;;;;;4907985;29;20437;-75
2022/01/11 07:11:47;;;;;;;3.60;1.90;;;21.90;45.30;;;;;;4907931;29;20048;-75
2022/01/11 07:14:12;;;;;;;3.80;2.22;;;21.90;45.30;;;;;;4892792;29;20516;-75
2022/01/11 07:16:38;;;;;;;5.20;1.92;;;22.40;45.50;;;;;;4939886;28;20410;-76
2022/01/11 07:19:04;;;;;;;4.03;2.00;;;22.00;45.30;;;;;;4951984;29;20492;-76
2022/01/11 07:21:30;;;;;;;4.15;2.20;;;22.00;45.20;;;;;;4952983;28;20053;-76
2022/01/11 07:23:56;;;;;;;5.00;2.50;;;22.00;45.20;;;;;;4952461;29;20186;-75
2022/01/11 07:26:21;;;;;;;4.50;2.08;;;22.00;45.10;;;;;;4952420;29;20050;-75
2022/01/11 07:28:47;;;;;;;4.35;2.20;;;22.00;45.80;;;;;;4943245;29;20039;-74
2022/01/11 07:31:13;;;;;;;3.72;1.92;;;22.00;45.10;;;;;;4952507;29;20057;-74
2022/01/11 07:33:39;;;;;;;4.75;2.47;;;22.10;45.10;;;;;;4941531;29;20043;-75
2022/01/11 07:36:04;;;;;;;4.32;2.35;;;22.10;45.10;;;;;;4949240;29;20714;-75
2022/01/11 07:38:30;;;;;;;4.10;2.08;;;22.00;45.00;;;;;;4943933;29;20054;-74
2022/01/11 07:40:55;;;;;;;4.53;2.35;;;22.00;45.00;;;;;;4936365;28;20062;-75
2022/01/11 07:43:21;;;;;;;5.40;2.55;;;22.20;45.10;;;;;;4959264;28;20181;-75
2022/01/11 07:45:47;;;;;;;6.57;2.65;;;22.00;44.90;;;;;;4951529;28;20148;-74
2022/01/11 07:48:12;;;;;;;4.65;2.40;;;22.00;44.90;;;;;;4949417;28;20058;-75
2022/01/11 07:50:40;;;;;;;5.03;2.75;;;22.00;44.90;;;;;;4952126;29;20651;-75
2022/01/11 07:53:06;;;;;;;4.00;2.28;;;22.00;44.90;;;;;;4943372;29;20494;-75
2022/01/11 07:55:32;;;;;;;4.53;2.35;;;22.00;44.80;;;;;;4937755;28;20031;-76
2022/01/11 07:57:58;;;;;;;5.10;2.45;;;22.00;44.80;;;;;;4939654;29;20121;-75
2022/01/11 08:00:23;;;;;;;4.18;2.17;;;22.00;45.10;;;;;;4941762;29;20059;-75
2022/01/11 08:02:49;;;;;;;5.20;2.67;;;22.00;44.80;;;;;;4960785;28;20081;-75
2022/01/11 08:05:15;;;;;;;4.75;2.72;;;21.90;44.70;;;;;;4951614;29;20558;-74
2022/01/11 08:07:42;;;;;;;4.88;2.63;;;21.90;44.70;;;;;;4951032;28;20104;-75
2022/01/11 08:10:10;;;;;;;4.57;2.53;;;21.90;44.70;;;;;;4951373;29;20089;-75
2022/01/11 08:12:35;;;;;;;3.92;2.25;;;21.90;44.70;;;;;;4951390;29;20055;-75
2022/01/11 08:15:01;;;;;;;5.68;3.03;;;22.10;44.80;;;;;;4950712;28;20046;-74
2022/01/11 08:17:28;;;;;;;4.78;2.58;;;21.90;44.60;;;;;;4951659;29;20047;-74
2022/01/11 08:19:54;;;;;;;5.90;3.13;;;21.90;44.70;;;;;;4947811;28;20048;-75
2022/01/11 08:22:19;;;;;;;5.80;2.85;;;21.80;44.50;;;;;;4946048;29;20058;-74
2022/01/11 08:24:45;;;;;;;4.90;2.50;;;21.80;44.50;;;;;;4958562;28;20035;-75
2022/01/11 08:27:11;;;;;;;5.25;2.35;;;21.80;44.50;;;;;;4959314;28;20036;-75
2022/01/11 08:29:37;;;;;;;5.57;2.70;;;21.80;44.50;;;;;;4956226;28;20052;-75
2022/01/11 08:32:03;;;;;;;4.50;2.67;;;21.80;44.60;;;;;;4948242;28;20575;-74
2022/01/11 08:34:28;;;;;;;4.55;2.30;;;21.80;44.60;;;;;;4947134;29;20142;-75
2022/01/11 08:36:55;;;;;;;5.35;2.72;;;21.80;44.60;;;;;;4966893;28;20479;-75
2022/01/11 08:39:21;;;;;;;4.97;2.78;;;21.80;44.60;;;;;;4951355;29;20385;-75
2022/01/11 08:41:46;;;;;;;4.80;2.72;;;21.80;44.60;;;;;;4951301;29;20050;-74
2022/01/11 08:44:22;;;;;;;4.65;2.38;;;21.70;44.60;;;;;;4950311;28;20047;-75
2022/01/11 08:46:48;;;;;;;6.15;3.10;;;21.70;44.60;;;;;;4948842;28;20039;-75
2022/01/11 08:49:13;;;;;;;4.68;2.53;;;22.00;44.80;;;;;;4942248;29;20055;-75
2022/01/11 08:51:39;;;;;;;5.75;2.72;;;21.70;44.70;;;;;;4942641;29;20074;-75
2022/01/11 08:54:05;;;;;;;4.50;2.47;;;21.70;44.60;;;;;;4957714;28;20761;-74
2022/01/11 08:56:31;;;;;;;5.28;2.63;;;21.70;44.70;;;;;;4943157;29;20039;-74
2022/01/11 08:58:56;;;;;;;5.05;2.70;;;21.70;44.60;;;;;;4941886;29;20377;-74
2022/01/11 09:01:23;;;;;;;5.25;2.97;;;21.70;44.60;;;;;;4966734;28;20058;-74
2022/01/11 09:03:49;;;;;;;5.00;2.85;;;21.80;44.70;;;;;;4949895;28;20062;-75
2022/01/11 09:06:14;;;;;;;5.10;2.70;;;21.70;44.60;;;;;;4950803;29;20518;-75
2022/01/11 09:08:41;;;;;;;4.72;2.53;;;21.70;44.50;;;;;;4955778;28;20051;-75
2022/01/11 09:11:07;;;;;;;5.53;3.17;;;21.70;44.60;;;;;;4935880;28;21437;-75
2022/01/11 09:13:33;;;;;;;5.72;3.47;;;21.90;44.60;;;;;;4942468;29;20085;-75
2022/01/11 09:15:58;;;;;;;6.55;3.40;;;21.70;44.50;;;;;;4945783;29;20070;-74
2022/01/11 09:18:24;;;;;;;6.05;3.55;;;21.70;44.40;;;;;;4941086;29;20503;-75
2022/01/11 09:20:49;;;;;;;6.13;3.20;;;21.70;44.40;;;;;;4931510;29;20593;-74
2022/01/11 09:23:15;;;;;;;5.72;3.35;;;21.70;44.30;;;;;;4945888;29;20166;-75
2022/01/11 09:25:41;;;;;;;6.20;3.58;;;21.70;44.30;;;;;;4949205;28;20046;-75
2022/01/11 09:28:06;;;;;;;5.55;3.08;;;21.70;44.30;;;;;;4950492;29;20050;-75
2022/01/11 09:30:32;;;;;;;5.88;3.50;;;21.60;44.20;;;;;;4949940;29;20130;-75
2022/01/11 09:32:57;;;;;;;5.75;3.15;;;21.70;44.30;;;;;;4949095;28;20043;-75
2022/01/11 09:35:25;;;;;;;5.70;3.20;;;21.70;44.20;;;;;;4950597;28;20063;-75
2022/01/11 09:37:51;;;;;;;7.70;3.40;;;21.70;44.20;;;;;;4947855;28;20102;-75
2022/01/11 09:40:17;;;;;;;4.90;2.67;;;21.70;44.20;;;;;;4948769;28;20479;-75
2022/01/11 09:42:42;;;;;;;5.95;3.28;;;21.70;44.20;;;;;;4951359;28;20055;-75
2022/01/11 09:45:10;;;;;;;6.55;3.60;;;21.70;44.20;;;;;;4944746;28;20055;-75
2022/01/11 09:47:38;;;;;;;12.20;4.75;;;21.70;44.10;;;;;;4945315;29;20338;-74
2022/01/11 09:50:04;;;;;;;7.20;4.80;;;21.70;42.70;;;;;;4928456;28;20437;-74
2022/01/11 09:52:30;;;;;;;7.65;4.10;;;21.60;42.30;;;;;;4875749;29;20087;-75
2022/01/11 09:54:55;;;;;;;7.13;3.85;;;21.70;42.70;;;;;;4882405;29;20404;-75
2022/01/11 09:57:21;;;;;;;6.47;4.10;;;21.50;42.50;;;;;;4888304;29;20053;-78
2022/01/11 09:59:47;;;;;;;6.50;4.00;;;21.50;42.70;;;;;;4874170;29;20120;-77
2022/01/11 10:02:13;;;;;;;6.53;4.07;;;21.40;42.70;;;;;;4881561;29;20052;-77
2022/01/11 10:04:38;;;;;;;5.50;3.35;;;21.40;42.70;;;;;;4890073;29;20060;-78
2022/01/11 10:07:06;;;;;;;7.53;3.70;;;21.40;42.80;;;;;;4884889;29;20076;-85
2022/01/11 10:09:32;;;;;;;7.80;3.80;;;21.40;42.80;;;;;;4883481;29;20060;-82
2022/01/11 10:11:59;;;;;;;7.88;3.50;;;21.40;42.80;;;;;;4885159;29;20044;-82
2022/01/11 10:14:31;;;;;;;6.35;3.72;;;21.40;42.90;;;;;;4888025;29;20079;-82
2022/01/11 10:17:19;;;;;;;7.80;3.75;;;21.40;42.90;;;;;;4877398;29;20049;-81
2022/01/11 10:19:48;;;;;;;5.97;3.20;;;21.70;43.10;;;;;;4892649;29;20048;-81
2022/01/11 10:22:17;;;;;;;5.85;3.40;;;21.40;43.00;;;;;;4888775;29;20052;-82
2022/01/11 10:24:45;;;;;;;5.72;3.30;;;21.40;43.00;;;;;;4903581;29;20056;-82
2022/01/11 10:27:25;;;;;;;6.43;3.47;;;21.40;43.10;;;;;;4884239;29;20053;-82
2022/01/11 10:29:58;;;;;;;6.85;3.38;;;21.40;43.10;;;;;;4889400;29;20044;-80
2022/01/11 10:32:40;;;;;;;5.97;3.63;;;21.40;43.10;;;;;;4882008;29;20127;-81
2022/01/11 10:35:06;;;;;;;5.47;3.30;;;21.40;43.10;;;;;;4885964;29;20129;-82
2022/01/11 10:37:39;;;;;;;5.90;3.10;;;21.40;43.30;;;;;;4884915;29;20198;-82
2022/01/11 10:40:15;;;;;;;5.82;3.40;;;21.40;43.90;;;;;;4888399;28;20058;-81
2022/01/11 10:42:47;;;;;;;5.40;3.17;;;21.40;43.20;;;;;;4962253;28;20511;-82
2022/01/11 10:45:15;;;;;;;9.90;3.42;;;21.40;43.30;;;;;;4946680;29;20121;-81
2022/01/11 10:47:43;;;;;;;5.28;3.10;;;21.40;43.30;;;;;;4965354;28;20051;-81
2022/01/11 10:50:30;;;;;;;5.47;3.30;;;21.40;43.30;;;;;;4948618;29;20090;-81
2022/01/11 10:52:56;;;;;;;6.85;3.15;;;21.40;43.20;;;;;;4968885;28;20247;-80
2022/01/11 10:55:23;;;;;;;6.25;3.20;;;21.40;43.20;;;;;;4954258;28;20070;-82
2022/01/11 10:57:53;;;;;;;5.88;3.55;;;21.40;43.30;;;;;;4952007;29;20055;-80
2022/01/11 11:00:34;;;;;;;5.65;3.22;;;21.50;43.30;;;;;;4952487;29;20047;-80
2022/01/11 11:03:09;;;;;;;5.82;3.38;;;21.40;43.40;;;;;;4950418;29;20047;-81
2022/01/11 11:05:55;;;;;;;6.45;3.20;;;21.50;43.40;;;;;;4951876;29;20043;-81
2022/01/11 11:08:21;;;;;;;4.97;2.80;;;21.50;43.40;;;;;;4945041;29;20071;-79
2022/01/11 11:10:56;;;;;;;5.15;2.58;;;21.50;43.50;;;;;;4943278;29;20051;-80
2022/01/11 11:13:32;;;;;;;5.13;3.05;;;21.50;43.80;;;;;;4948009;28;20138;-80
2022/01/11 11:16:07;;;;;;;5.20;2.78;;;21.50;43.80;;;;;;4933805;29;20075;-79
2022/01/11 11:18:35;;;;;;;4.80;2.60;;;21.60;43.90;;;;;;4933167;29;20048;-81
2022/01/11 11:21:32;;;;;;;4.53;2.58;;;21.60;43.90;;;;;;4934728;29;20705;-80
2022/01/11 11:23:59;;;;;;;5.32;2.50;;;21.60;43.90;;;;;;4933244;29;20055;-81
2022/01/11 11:26:31;;;;;;;4.35;2.63;;;22.60;44.50;;;;;;4932527;29;20052;-81
2022/01/11 11:28:57;;;;;;;3.92;2.38;;;21.60;43.90;;;;;;4933172;29;20054;-80
2022/01/11 11:31:24;;;;;;;3.63;2.30;;;21.60;43.90;;;;;;4932494;29;20048;-81
2022/01/11 11:33:50;;;;;;;4.55;2.60;;;21.70;44.00;;;;;;4932206;29;20094;-81
2022/01/11 11:36:16;;;;;;;4.43;2.10;;;22.90;44.60;;;;;;4933049;29;20091;-81
2022/01/11 11:38:53;;;;;;;4.85;2.60;;;22.90;44.60;;;;;;4885450;29;20084;-80
2022/01/11 11:41:19;;;;;;;3.58;2.05;;;21.70;43.90;;;;;;4893896;29;20080;-80
2022/01/11 11:44:11;;;;;;;4.68;2.67;;;22.00;44.00;;;;;;4879057;29;20090;-81
2022/01/11 11:46:43;;;;;;;3.65;2.15;;;21.70;43.90;;;;;;4928101;29;20111;-81
2022/01/11 11:49:09;;;;;;;3.95;2.08;;;21.70;43.80;;;;;;4951932;29;20054;-81
2022/01/11 11:51:38;;;;;;;3.17;1.92;;;21.70;43.90;;;;;;4934968;29;20043;-81
2022/01/11 11:54:11;;;;;;;3.92;2.38;;;21.70;43.90;;;;;;4941316;28;20043;-81
2022/01/11 11:56:36;;;;;;;4.38;2.13;;;21.70;43.90;;;;;;4955537;28;20443;-81
2022/01/11 11:59:06;;;;;;;3.92;2.20;;;21.80;43.90;;;;;;4934058;29;20047;-81
2022/01/11 12:01:45;;;;;;;3.63;2.13;;;21.80;44.00;;;;;;4951384;29;20380;-81
2022/01/11 12:04:16;;;;;;;3.92;2.10;;;21.80;44.00;;;;;;4951011;28;20046;-81
2022/01/11 12:06:43;;;;;;;4.93;2.67;;;21.80;44.00;;;;;;4951147;28;20107;-81
2022/01/11 12:09:09;;;;;;;3.75;2.10;;;21.80;44.00;;;;;;4951590;29;20146;-81
2022/01/11 12:11:37;;;;;;;4.15;2.10;;;23.20;44.70;;;;;;4951392;28;20388;-77
2022/01/11 12:14:02;;;;;;;3.95;2.10;;;21.90;44.00;;;;;;4946712;28;20066;-82
2022/01/11 12:16:35;;;;;;;4.53;2.25;;;21.90;44.10;;;;;;4932678;29;20059;-82
2022/01/11 12:19:03;;;;;;;3.83;1.98;;;21.90;44.80;;;;;;4932962;29;20058;-82
2022/01/11 12:21:29;;;;;;;4.65;2.50;;;21.90;43.90;;;;;;4931636;29;20077;-82
2022/01/11 12:23:56;;;;;;;3.30;1.92;;;22.00;44.00;;;;;;4932716;29;20460;-82
2022/01/11 12:26:25;;;;;;;3.28;1.92;;;21.90;43.90;;;;;;4932431;29;20048;-82
2022/01/11 12:29:09;;;;;;;4.03;2.10;;;21.90;43.90;;;;;;4903842;29;20098;-81
2022/01/11 12:31:45;;;;;;;3.75;2.10;;;21.90;43.90;;;;;;4886911;29;20072;-82
2022/01/11 12:34:12;;;;;;;7.13;3.22;;;21.90;43.80;;;;;;4889406;29;20037;-85
2022/01/11 12:36:56;;;;;;;8.75;4.32;;;21.90;43.50;;;;;;4894075;29;20075;-85
2022/01/11 12:39:23;;;;;;;12.75;4.25;;;21.90;42.70;;;;;;4893299;29;20053;-83
2022/01/11 12:41:49;;;;;;;14.48;3.80;;;21.90;42.50;;;;;;4893263;29;20119;-83
2022/01/11 12:47:09;;;;;;;5.72;3.45;;;22.60;42.90;;;;;;4893702;29;20059;-82
2022/01/11 12:49:39;;;;;;;8.77;3.85;;;21.70;42.40;;;;;;4908263;29;20056;-80
2022/01/11 12:52:14;;;;;;;8.63;3.33;;;21.70;42.70;;;;;;4908975;29;20131;-80